Athens Ben Epps Airport
KAHN : now visible

Airfield :











YOU CAN JOIN US ON...

 
LOGIN :

Register | Disclaimer

   EN    FR    IT 

 









Legend :    VFR   Marginal VFR   IFR   Intensive IFR   Very Intensive IFR
Visi :
Ceiling :
>= 8 km
>= 3000ft
5 to 8 km
1000 to 3000 ft
1500m to 5 km
500 to 1000 ft
800 to 1500m
200 to 500 ft
< 800m
< 200 ft
Symbols :   Thunderstorms  Fog  Heavy snow  Heavy precipitations  Wind > 20 kt






- Airport Elevation : 808 ft
- IATA code : AHN


KAHN - Athens Ben Epps

CURRENT METAR :
  • 202051Z 31007KT 10SM SCT120 28/22 A2982 RMK AO2 SLP090 60000 T02780222 56005 $

EXPIRED METARs :
  • 202011Z 28006KT 10SM FEW022 BKN030 OVC070 28/22 A2982 RMK AO2 T02780217 $
  • 201951Z 26004KT 10SM SCT020 BKN024 OVC080 28/22 A2982 RMK AO2 SLP090 T02780217 $
  • 201851Z VRB03KT 10SM FEW012 SCT025 BKN090 28/23 A2982 RMK AO2 RAE1753 SLP090 P0000 T02780228 $
  • 201822Z 00000KT 10SM BKN013 BKN027 OVC040 26/22 A2982 RMK AO2 RAE1753 P0000 T02610222 $

TAF KAHN
Valid from the 20 at 18:00 until the 21 at 18:00 UTC


201737Z 2018/2118 VRB03KT 3SM SHRA BR SCT008 BKN015
TEMPO 2018/2020 BKN008
FM202000 30005KT P6SM VCSH SCT012 BKN015
FM210000 27007KT P6SM BKN025 OVC035
FM210300 26005KT P6SM SCT035 BKN120
FM210700 25004KT P6SM SCT250
FM211200 25007KT P6SM SCT007 SCT015
KZTL FIR / North America



MET'MAP, your aeronautical weather chart ! - Copyright ORBIFLY December 2007 - Disclaimer

ORBIFLY MET'MAP TEAM :

Programming & Development : Alexandra Zaïnal
Concept & original design : Baudouin d'Aumeries
Assistance for programming : Marc-Olivier Méhu
Technical & hardware support : Manuel Goepfert

Contact : metmap@orbifly.com




SOURCES & CREDITS :

   NOAA       Earth
Advisory